Time;durP1;ratioP1;P1;durP2;ratioP2;P2;SDS_P1;SDS_P2;PMS_P1;PMS_P2;Temp;Humidity;BMP_temperature;BMP_pressure;BME280_temperature;BME280_humidity;BME280_pressure;Samples;Min_cycle;Max_cycle;Signal;HPM_P1;HPM_P2
2022/02/28 00:02:01;;;;;;;7.95;3.50;;;;;;;2.94;65.08;99810.69;5065682;28;20295;-67
2022/02/28 00:04:26;;;;;;;4.88;2.53;;;;;;;2.97;64.79;99815.97;5065608;28;20356;-67
2022/02/28 00:06:55;;;;;;;9.18;3.63;;;;;;;2.96;64.12;99814.22;5065476;28;20021;-67
2022/02/28 00:09:21;;;;;;;9.68;3.60;;;;;;;2.92;64.87;99807.19;5065334;28;20032;-67
2022/02/28 00:11:47;;;;;;;5.72;2.80;;;;;;;2.79;65.22;99804.16;5065467;28;20224;-67
2022/02/28 00:14:12;;;;;;;8.60;3.17;;;;;;;2.86;65.06;99812.19;5065410;28;20089;-67
2022/02/28 00:16:37;;;;;;;7.65;2.95;;;;;;;2.79;65.01;99810.25;5065636;28;20312;-67
2022/02/28 00:19:03;;;;;;;6.93;3.72;;;;;;;2.65;65.68;99811.53;5065020;28;20024;-67
2022/02/28 00:21:29;;;;;;;4.68;2.78;;;;;;;2.66;65.88;99810.69;5065232;28;20378;-67
2022/02/28 00:23:54;;;;;;;7.68;3.35;;;;;;;2.60;66.30;99813.13;5065134;28;20031;-67
2022/02/28 00:26:20;;;;;;;8.32;3.90;;;;;;;2.58;66.37;99804.41;5065076;28;20029;-67
2022/02/28 00:28:45;;;;;;;5.85;3.17;;;;;;;2.61;66.15;99804.50;5064948;28;20036;-67
2022/02/28 00:31:11;;;;;;;5.18;2.28;;;;;;;2.50;66.38;99818.84;5065061;28;20033;-67
2022/02/28 00:33:37;;;;;;;8.18;3.13;;;;;;;2.35;67.21;99826.19;5065045;28;20051;-67
2022/02/28 00:36:03;;;;;;;7.53;2.70;;;;;;;2.28;67.86;99822.50;5064994;28;20266;-67
2022/02/28 00:38:28;;;;;;;7.60;3.35;;;;;;;2.28;67.21;99824.25;5064719;28;20236;-67
2022/02/28 00:40:53;;;;;;;5.25;3.00;;;;;;;2.40;67.00;99835.00;5065142;28;20029;-67
2022/02/28 00:43:19;;;;;;;5.38;2.95;;;;;;;2.34;67.52;99824.41;5064864;28;20032;-67
2022/02/28 00:45:44;;;;;;;7.38;3.65;;;;;;;2.40;66.98;99835.00;5065070;28;20024;-67
2022/02/28 00:48:10;;;;;;;7.45;3.30;;;;;;;2.54;66.37;99828.53;5064542;28;20040;-67
2022/02/28 00:50:36;;;;;;;7.45;3.15;;;;;;;2.53;66.39;99821.56;5064586;28;20032;-67
2022/02/28 00:53:02;;;;;;;5.57;3.63;;;;;;;2.59;66.25;99826.09;5064783;28;20258;-67
2022/02/28 00:55:27;;;;;;;5.53;3.38;;;;;;;2.56;66.17;99816.44;5064142;28;20039;-67
2022/02/28 00:57:53;;;;;;;11.23;3.35;;;;;;;2.44;66.85;99821.28;5064553;28;20332;-67
2022/02/28 01:00:22;;;;;;;7.00;3.53;;;;;;;2.36;67.49;99816.66;5064359;28;20041;-67
2022/02/28 01:02:48;;;;;;;6.60;3.67;;;;;;;2.21;67.49;99817.06;5064489;28;20298;-67
2022/02/28 01:05:15;;;;;;;6.80;3.42;;;;;;;2.13;68.39;99818.53;5064449;28;20017;-67
2022/02/28 01:07:41;;;;;;;5.80;3.70;;;;;;;2.07;68.30;99818.34;5064216;28;20029;-67
2022/02/28 01:10:11;;;;;;;5.47;3.08;;;;;;;1.94;69.20;99816.19;5064426;28;20062;-67
2022/02/28 01:12:37;;;;;;;7.53;3.67;;;;;;;1.88;69.33;99826.34;5064305;28;20220;-67
2022/02/28 01:15:05;;;;;;;5.63;2.95;;;;;;;1.92;69.54;99834.28;5064137;28;20025;-67
2022/02/28 01:17:30;;;;;;;8.23;3.95;;;;;;;1.79;69.98;99847.69;5064204;28;20079;-67
2022/02/28 01:19:57;;;;;;;9.80;3.30;;;;;;;1.73;70.40;99831.00;5064019;28;20363;-67
2022/02/28 01:22:22;;;;;;;6.22;3.58;;;;;;;1.74;70.48;99838.84;5064193;28;20029;-67
2022/02/28 01:24:49;;;;;;;6.75;3.60;;;;;;;1.62;70.96;99832.38;5064077;28;20028;-67
2022/02/28 01:27:14;;;;;;;6.80;3.22;;;;;;;1.62;70.95;99834.97;5063818;28;20023;-67
2022/02/28 01:29:40;;;;;;;5.18;3.80;;;;;;;1.72;70.57;99837.03;5064056;28;20307;-67
2022/02/28 01:32:06;;;;;;;9.23;3.50;;;;;;;1.80;69.91;99838.19;5064139;28;20343;-67
2022/02/28 01:34:31;;;;;;;7.97;4.25;;;;;;;1.78;70.09;99834.66;5064305;28;20084;-67
2022/02/28 01:36:57;;;;;;;4.57;2.92;;;;;;;1.78;69.95;99834.66;5064261;28;20024;-67
2022/02/28 01:39:22;;;;;;;7.93;3.20;;;;;;;1.76;70.05;99825.94;5063666;28;20036;-67
2022/02/28 01:41:48;;;;;;;5.88;3.08;;;;;;;1.73;70.09;99825.81;5063962;28;20025;-67
2022/02/28 01:44:13;;;;;;;7.88;3.10;;;;;;;1.67;70.23;99826.50;5063877;28;20220;-67
2022/02/28 01:46:39;;;;;;;6.72;3.83;;;;;;;1.71;69.92;99830.09;5063784;28;20034;-67
2022/02/28 01:49:06;;;;;;;9.40;3.47;;;;;;;1.75;70.27;99839.75;5064093;28;20028;-67
2022/02/28 01:51:35;;;;;;;5.82;3.58;;;;;;;1.67;70.59;99836.00;5064098;28;20032;-67
2022/02/28 01:54:00;;;;;;;4.63;2.85;;;;;;;1.57;71.28;99833.91;5064052;28;20036;-67
2022/02/28 01:56:26;;;;;;;11.10;3.45;;;;;;;1.55;71.29;99827.81;5063563;28;20021;-67
2022/02/28 01:58:51;;;;;;;5.03;2.90;;;;;;;1.52;71.62;99835.47;5063716;28;20029;-67
2022/02/28 02:01:17;;;;;;;6.97;3.35;;;;;;;1.42;72.48;99838.56;5063800;28;20108;-67
2022/02/28 02:03:42;;;;;;;11.20;3.25;;;;;;;1.32;72.50;99836.47;5063681;28;20051;-67
2022/02/28 02:06:09;;;;;;;7.75;3.78;;;;;;;1.24;73.44;99837.91;5063752;28;20025;-67
2022/02/28 02:08:36;;;;;;;4.65;2.40;;;;;;;1.19;73.10;99834.25;5068043;28;20032;-67
2022/02/28 02:11:02;;;;;;;8.02;3.28;;;;;;;1.09;73.85;99829.56;5067717;28;20067;-67
2022/02/28 02:13:30;;;;;;;5.82;2.92;;;;;;;1.04;73.99;99833.72;5067677;28;20029;-67
2022/02/28 02:15:57;;;;;;;6.22;3.42;;;;;;;0.85;74.36;99826.09;5067482;28;20221;-67
2022/02/28 02:18:23;;;;;;;10.18;2.83;;;;;;;0.67;75.08;99826.28;5067605;28;20029;-67
2022/02/28 02:20:49;;;;;;;6.18;2.97;;;;;;;0.61;75.18;99820.84;5067536;28;20041;-67
2022/02/28 02:23:15;;;;;;;6.63;3.40;;;;;;;0.40;75.86;99808.75;5067417;28;20036;-67
2022/02/28 02:25:42;;;;;;;9.57;3.78;;;;;;;0.29;76.49;99816.13;5067403;28;20035;-67
2022/02/28 02:28:10;;;;;;;9.10;4.10;;;;;;;0.20;76.86;99814.88;5067189;28;20423;-67
2022/02/28 02:30:36;;;;;;;11.30;3.13;;;;;;;0.20;77.49;99830.41;5067441;28;20048;-67
2022/02/28 02:33:02;;;;;;;9.65;3.17;;;;;;;0.25;76.73;99828.91;5067607;28;20032;-67
2022/02/28 02:35:28;;;;;;;6.05;3.78;;;;;;;0.34;76.45;99831.84;5067286;28;20045;-67
2022/02/28 02:37:54;;;;;;;6.07;3.60;;;;;;;0.48;75.53;99822.91;5067223;28;20313;-67
2022/02/28 02:40:20;;;;;;;13.32;3.83;;;;;;;0.49;75.40;99819.47;5067221;28;20084;-67
2022/02/28 02:42:46;;;;;;;7.70;3.58;;;;;;;0.45;76.23;99827.97;5067141;28;20060;-67
2022/02/28 02:45:12;;;;;;;5.47;3.03;;;;;;;0.42;76.26;99827.84;5067133;28;20028;-67
2022/02/28 02:47:37;;;;;;;8.57;3.50;;;;;;;0.51;76.21;99817.84;5067057;28;20054;-67
2022/02/28 02:50:04;;;;;;;7.43;3.25;;;;;;;0.39;75.95;99827.72;5067024;28;20071;-67
2022/02/28 02:52:30;;;;;;;5.50;3.10;;;;;;;0.19;76.33;99820.88;5066764;28;20048;-67
2022/02/28 02:54:56;;;;;;;6.07;2.90;;;;;;;0.10;76.75;99823.09;5066933;28;20048;-67
2022/02/28 02:57:21;;;;;;;6.00;3.22;;;;;;;0.03;77.35;99815.91;5066857;28;20025;-67
2022/02/28 02:59:49;;;;;;;4.63;2.92;;;;;;;0.03;77.23;99817.66;5066209;28;20051;-67
2022/02/28 03:02:14;;;;;;;9.82;3.75;;;;;;;0.06;77.24;99823.81;5065796;28;20032;-67
2022/02/28 03:04:40;;;;;;;6.65;2.60;;;;;;;0.03;77.20;99821.09;5065495;28;20020;-67
2022/02/28 03:07:19;;;;;;;5.63;3.38;;;;;;;-0.05;77.44;99821.66;5065419;28;20348;-67
2022/02/28 03:09:45;;;;;;;9.93;3.00;;;;;;;-0.05;78.32;99819.06;5065463;28;20050;-67
2022/02/28 03:12:12;;;;;;;9.00;3.20;;;;;;;-0.24;78.28;99811.38;5065390;28;20029;-67
2022/02/28 03:14:38;;;;;;;7.25;3.58;;;;;;;-0.37;78.85;99813.38;5065463;28;20035;-67
2022/02/28 03:17:04;;;;;;;5.97;3.42;;;;;;;-0.47;79.17;99806.91;5064949;28;20048;-67
2022/02/28 03:19:29;;;;;;;7.70;2.92;;;;;;;-0.41;79.09;99808.91;5045306;28;20321;-67
2022/02/28 03:21:54;;;;;;;6.22;4.07;;;;;;;-0.52;79.81;99803.28;5045338;28;20032;-67
2022/02/28 03:24:20;;;;;;;5.03;2.60;;;;;;;-0.60;79.21;99796.88;5045235;28;20025;-67
2022/02/28 03:26:45;;;;;;;6.90;3.78;;;;;;;-0.72;79.28;99798.97;5045234;28;20029;-67
2022/02/28 03:29:12;;;;;;;9.80;3.15;;;;;;;-0.72;80.08;99798.97;5045206;28;20101;-67
2022/02/28 03:31:37;;;;;;;7.03;3.47;;;;;;;-0.79;80.16;99799.50;5063122;28;20049;-67
2022/02/28 03:34:03;;;;;;;11.40;3.58;;;;;;;-0.75;80.46;99796.25;5065075;28;20025;-67
2022/02/28 03:36:28;;;;;;;10.60;2.92;;;;;;;-0.81;81.14;99798.56;5065057;28;20320;-67
2022/02/28 03:38:54;;;;;;;7.00;3.50;;;;;;;-0.87;81.26;99795.72;5065193;28;20029;-67
2022/02/28 03:41:19;;;;;;;6.32;3.67;;;;;;;-0.87;81.48;99798.28;5064983;28;20025;-67
2022/02/28 03:43:45;;;;;;;6.47;3.50;;;;;;;-1.02;81.59;99802.78;5064948;28;20052;-67
2022/02/28 03:46:10;;;;;;;10.45;4.45;;;;;;;-1.03;81.79;99795.84;5064812;28;20024;-67
2022/02/28 03:48:36;;;;;;;5.97;2.90;;;;;;;-0.94;82.26;99801.44;5064921;28;20071;-67
2022/02/28 03:51:04;;;;;;;5.43;2.90;;;;;;;-0.86;82.11;99799.16;5064798;28;20059;-67
2022/02/28 03:53:33;;;;;;;7.88;3.25;;;;;;;-0.82;81.62;99807.09;5065013;28;20025;-67
2022/02/28 03:55:59;;;;;;;9.15;4.05;;;;;;;-0.89;81.12;99805.09;5064584;28;20029;-67
2022/02/28 03:58:24;;;;;;;8.25;3.72;;;;;;;-0.90;82.12;99812.75;5064856;28;20024;-67
2022/02/28 04:00:50;;;;;;;5.55;2.97;;;;;;;-0.95;81.86;99820.31;5025665;28;1131464;-67
2022/02/28 04:03:16;;;;;;;9.02;3.65;;;;;;;-0.94;81.95;99819.50;5065930;28;20443;-67
2022/02/28 04:05:41;;;;;;;9.52;3.15;;;;;;;-1.02;82.10;99818.28;5065605;28;20043;-67
2022/02/28 04:08:07;;;;;;;7.45;3.50;;;;;;;-0.97;81.99;99818.47;5065451;28;20339;-67
2022/02/28 04:10:32;;;;;;;7.05;2.78;;;;;;;-1.01;82.34;99817.44;5065515;28;20066;-67
2022/02/28 04:12:58;;;;;;;7.53;3.83;;;;;;;-0.86;81.90;99815.56;5065279;28;20029;-67
2022/02/28 04:15:24;;;;;;;9.20;4.18;;;;;;;-0.96;81.33;99820.25;5065404;28;20029;-67
2022/02/28 04:17:49;;;;;;;6.00;3.38;;;;;;;-1.12;81.81;99821.28;5065366;28;20267;-67
2022/02/28 04:20:14;;;;;;;13.63;6.32;;;;;;;-1.27;82.45;99824.88;5065350;28;20213;-67
2022/02/28 04:22:40;;;;;;;7.93;3.92;;;;;;;-1.35;83.83;99816.78;5065260;28;20024;-67
2022/02/28 04:25:07;;;;;;;8.63;3.92;;;;;;;-1.26;83.73;99822.34;5065176;28;20313;-67
2022/02/28 04:27:33;;;;;;;7.18;3.83;;;;;;;-1.23;83.38;99824.19;5065109;28;20079;-67
2022/02/28 04:29:58;;;;;;;5.30;3.35;;;;;;;-1.23;83.26;99827.63;5064328;28;20376;-67
2022/02/28 04:32:24;;;;;;;31.63;4.68;;;;;;;-1.42;83.56;99824.16;5065073;28;20096;-67
2022/02/28 04:34:49;;;;;;;11.15;3.17;;;;;;;-1.41;83.93;99819.06;5065060;28;20048;-67
2022/02/28 04:37:15;;;;;;;25.10;3.58;;;;;;;-1.46;84.55;99820.53;5065046;28;20017;-67
2022/02/28 04:39:40;;;;;;;5.68;3.17;;;;;;;-1.56;84.37;99822.63;5064944;28;20080;-67
2022/02/28 04:42:06;;;;;;;9.93;3.83;;;;;;;-1.64;84.55;99817.13;5064852;28;20407;-67
2022/02/28 04:44:32;;;;;;;15.20;4.57;;;;;;;-1.60;84.31;99818.13;5064801;28;20344;-67
2022/02/28 04:46:58;;;;;;;11.35;2.95;;;;;;;-1.62;84.25;99817.19;5064632;28;21102;-67
2022/02/28 04:49:23;;;;;;;4.72;3.20;;;;;;;-1.63;84.79;99817.97;5064765;28;20092;-67
2022/02/28 04:51:49;;;;;;;11.20;4.32;;;;;;;-1.63;84.10;99818.88;5064697;28;20017;-68
2022/02/28 04:54:14;;;;;;;10.30;4.55;;;;;;;-1.68;84.43;99825.50;5063110;28;20027;-67
2022/02/28 04:56:39;;;;;;;6.80;3.72;;;;;;;-1.71;84.47;99820.19;5063682;28;20023;-69
2022/02/28 04:59:05;;;;;;;13.93;3.85;;;;;;;-1.72;84.51;99818.44;5063455;28;20272;-68
2022/02/28 05:01:30;;;;;;;6.75;3.17;;;;;;;-1.76;84.75;99816.53;5063318;28;20064;-68
2022/02/28 05:03:56;;;;;;;6.20;3.08;;;;;;;-1.77;84.75;99817.31;5063564;28;20052;-68
2022/02/28 05:06:22;;;;;;;6.47;3.72;;;;;;;-1.73;84.85;99823.53;5063023;28;20029;-68
2022/02/28 05:08:47;;;;;;;6.22;3.15;;;;;;;-1.84;84.65;99817.00;5063485;28;20286;-68
2022/02/28 05:11:12;;;;;;;9.98;4.20;;;;;;;-1.96;84.91;99817.28;5064051;28;20051;-68
2022/02/28 05:13:39;;;;;;;7.57;3.15;;;;;;;-1.79;84.61;99821.56;5064397;28;20035;-68
2022/02/28 05:16:05;;;;;;;11.52;5.03;;;;;;;-1.70;84.54;99815.94;5064310;28;20021;-68
2022/02/28 05:18:30;;;;;;;5.28;3.20;;;;;;;-1.89;84.37;99811.63;5064245;28;20028;-68
2022/02/28 05:20:55;;;;;;;7.75;3.85;;;;;;;-1.73;84.60;99819.25;5064236;28;20040;-68
2022/02/28 05:23:21;;;;;;;5.72;3.50;;;;;;;-1.95;84.31;99824.22;5064223;28;20040;-68
2022/02/28 05:25:46;;;;;;;7.38;3.13;;;;;;;-1.93;84.88;99822.56;5064081;28;20031;-68
2022/02/28 05:28:12;;;;;;;11.25;3.85;;;;;;;-1.92;85.20;99824.38;5064069;28;20025;-68
2022/02/28 05:30:37;;;;;;;6.53;3.65;;;;;;;-1.95;84.92;99824.22;5064091;28;20028;-68
2022/02/28 05:33:03;;;;;;;9.35;5.22;;;;;;;-1.97;85.18;99815.50;5064055;28;20028;-68
2022/02/28 05:35:28;;;;;;;6.07;3.47;;;;;;;-1.96;85.50;99819.88;5064022;28;20029;-68
2022/02/28 05:37:54;;;;;;;6.50;3.85;;;;;;;-1.91;85.07;99820.97;5064005;28;20024;-68
2022/02/28 05:40:20;;;;;;;10.85;5.30;;;;;;;-1.91;85.02;99831.28;5063836;28;20084;-68
2022/02/28 05:42:45;;;;;;;9.95;3.40;;;;;;;-2.02;85.01;99822.16;5063894;28;20049;-68
2022/02/28 05:45:11;;;;;;;4.95;2.90;;;;;;;-1.94;85.25;99825.06;5063874;28;20032;-68
2022/02/28 05:47:37;;;;;;;6.13;3.40;;;;;;;-1.93;85.47;99827.72;5063795;28;20043;-68
2022/02/28 05:50:03;;;;;;;14.13;4.30;;;;;;;-2.08;85.67;99811.53;5063846;28;20025;-68
2022/02/28 05:52:29;;;;;;;8.05;4.43;;;;;;;-2.04;85.86;99823.75;5063811;28;20084;-68
2022/02/28 05:54:55;;;;;;;7.72;4.13;;;;;;;-2.14;85.90;99826.72;5063784;28;20251;-67
2022/02/28 05:57:21;;;;;;;11.68;3.95;;;;;;;-2.19;85.52;99828.16;5063747;28;20020;-68
2022/02/28 05:59:47;;;;;;;7.90;3.33;;;;;;;-2.21;85.90;99827.22;5063601;28;20336;-68
2022/02/28 06:02:12;;;;;;;9.80;3.30;;;;;;;-2.21;85.78;99834.97;5063793;28;20052;-68
2022/02/28 06:04:38;;;;;;;12.98;3.70;;;;;;;-2.15;85.72;99840.44;5063698;28;20024;-68
2022/02/28 06:07:04;;;;;;;13.02;4.60;;;;;;;-2.16;85.96;99837.78;5063581;28;20040;-68
2022/02/28 06:09:29;;;;;;;6.35;2.90;;;;;;;-2.11;86.23;99842.34;5063659;28;20029;-68
2022/02/28 06:11:54;;;;;;;9.43;4.13;;;;;;;-2.02;86.24;99853.09;5063654;28;20048;-68
2022/02/28 06:14:20;;;;;;;8.48;4.38;;;;;;;-1.89;86.58;99855.47;5063581;28;20052;-68
2022/02/28 06:16:46;;;;;;;11.85;5.28;;;;;;;-1.85;86.09;99865.13;5063837;28;20021;-68
2022/02/28 06:19:12;;;;;;;7.28;4.40;;;;;;;-1.98;85.73;99855.03;5063604;28;20193;-68
2022/02/28 06:21:37;;;;;;;15.82;3.95;;;;;;;-1.99;85.71;99852.38;5063575;28;20058;-68
2022/02/28 06:24:03;;;;;;;12.15;4.57;;;;;;;-2.01;85.55;99854.88;5063858;28;20240;-68
2022/02/28 06:26:28;;;;;;;10.60;3.63;;;;;;;-2.02;85.36;99855.69;5063452;28;20040;-68
2022/02/28 06:28:54;;;;;;;11.02;3.75;;;;;;;-2.04;85.29;99852.13;5063452;28;20244;-68
2022/02/28 06:31:20;;;;;;;11.27;4.20;;;;;;;-2.00;85.82;99851.47;5063407;28;20071;-68
2022/02/28 06:33:46;;;;;;;6.32;3.83;;;;;;;-1.98;85.91;99849.84;5063672;28;20067;-68
2022/02/28 06:36:12;;;;;;;6.60;3.78;;;;;;;-2.03;85.93;99856.47;5063494;28;20053;-68
2022/02/28 06:38:38;;;;;;;7.93;4.68;;;;;;;-2.00;86.32;99855.75;5063487;28;20386;-68
2022/02/28 06:41:03;;;;;;;8.98;3.90;;;;;;;-1.96;86.39;99862.84;5063648;28;20088;-68
2022/02/28 06:43:29;;;;;;;10.52;4.50;;;;;;;-1.96;86.34;99862.84;5063304;28;20351;-68
2022/02/28 06:45:55;;;;;;;10.85;6.05;;;;;;;-1.85;86.47;99866.81;5063296;28;20348;-68
2022/02/28 06:48:21;;;;;;;10.10;4.50;;;;;;;-1.85;86.27;99862.53;5063381;28;20048;-68
2022/02/28 06:50:47;;;;;;;10.98;4.55;;;;;;;-1.71;86.37;99866.66;5063320;28;20025;-68
2022/02/28 06:53:18;;;;;;;9.77;4.43;;;;;;;-1.59;86.29;99866.38;5064993;28;20025;-68
2022/02/28 06:55:44;;;;;;;62.83;30.52;;;;;;;-1.71;85.53;99861.50;5067044;28;20025;-68
2022/02/28 06:58:10;;;;;;;40.90;18.48;;;;;;;-1.78;86.50;99858.56;5066897;28;20041;-68
2022/02/28 07:00:36;;;;;;;23.73;14.30;;;;;;;-1.58;87.25;99858.69;5066763;28;20048;-68
2022/02/28 07:03:01;;;;;;;25.98;10.60;;;;;;;-1.41;86.75;99868.13;5066785;28;20087;-68
2022/02/28 07:05:28;;;;;;;23.33;11.43;;;;;;;-1.39;86.48;99871.66;5066752;28;20020;-68
2022/02/28 07:07:53;;;;;;;25.17;12.52;;;;;;;-1.37;86.33;99859.69;5066655;28;20029;-68
2022/02/28 07:10:20;;;;;;;32.55;13.02;;;;;;;-1.06;86.23;99862.88;5066692;28;20127;-68
2022/02/28 07:12:46;;;;;;;30.92;12.82;;;;;;;-1.05;85.44;99863.75;5066611;28;20020;-68
2022/02/28 07:15:11;;;;;;;26.45;11.00;;;;;;;-0.80;85.99;99872.69;5066596;28;20088;-68
2022/02/28 07:17:36;;;;;;;24.92;12.63;;;;;;;-0.41;85.07;99865.81;5066660;28;20347;-68
2022/02/28 07:20:03;;;;;;;24.42;11.27;;;;;;;-0.06;84.43;99874.22;5066471;28;20021;-67
2022/02/28 07:22:28;;;;;;;23.92;11.50;;;;;;;0.37;82.99;99870.78;5066451;28;20028;-67
2022/02/28 07:24:53;;;;;;;17.67;8.90;;;;;;;0.98;81.63;99867.19;5066344;28;20088;-67
2022/02/28 07:27:19;;;;;;;16.60;8.90;;;;;;;1.29;79.10;99872.66;5066293;28;20021;-68
2022/02/28 07:29:44;;;;;;;19.02;10.13;;;;;;;2.00;77.86;99878.69;5066330;28;20032;-68
2022/02/28 07:32:10;;;;;;;12.13;5.00;;;;;;;2.63;75.08;99878.22;5066248;28;20047;-68
2022/02/28 07:34:35;;;;;;;12.75;6.25;;;;;;;2.96;73.40;99876.63;5066306;28;20360;-68
2022/02/28 07:37:01;;;;;;;12.73;6.47;;;;;;;3.52;71.63;99884.38;5066163;28;20044;-68
2022/02/28 07:39:26;;;;;;;9.85;5.28;;;;;;;4.32;69.00;99892.63;5066115;28;20029;-68
2022/02/28 07:41:52;;;;;;;8.75;5.05;;;;;;;4.71;65.47;99897.91;5066067;28;20021;-68
2022/02/28 07:44:18;;;;;;;8.80;4.63;;;;;;;4.76;64.21;99882.38;5066063;28;20084;-68
2022/02/28 07:46:43;;;;;;;13.13;4.38;;;;;;;5.43;62.32;99885.63;5065900;28;20018;-68
2022/02/28 07:49:09;;;;;;;7.03;3.55;;;;;;;6.00;60.65;99894.63;5065968;28;20043;-68
2022/02/28 07:51:34;;;;;;;8.85;4.85;;;;;;;5.66;59.86;99869.56;5066019;28;20025;-68
2022/02/28 07:54:00;;;;;;;9.45;5.72;;;;;;;6.25;58.17;99870.69;5065850;28;20021;-68
2022/02/28 07:56:25;;;;;;;6.95;4.32;;;;;;;6.09;58.83;99858.22;5065803;28;20186;-68
2022/02/28 07:58:51;;;;;;;12.20;5.28;;;;;;;6.14;57.89;99846.13;5066025;28;20025;-68
2022/02/28 08:01:17;;;;;;;11.73;5.47;;;;;;;7.20;56.03;99838.16;5065579;28;20272;-68
2022/02/28 08:03:42;;;;;;;10.73;5.05;;;;;;;6.91;55.05;99827.31;5064968;28;20317;-68
2022/02/28 08:06:08;;;;;;;9.20;4.82;;;;;;;7.11;54.99;99838.91;5065085;28;20024;-68
2022/02/28 08:08:33;;;;;;;12.90;5.00;;;;;;;7.57;53.59;99833.41;5065647;28;20305;-68
2022/02/28 08:10:59;;;;;;;9.48;4.93;;;;;;;8.25;52.75;99829.75;5065535;28;20063;-68
2022/02/28 08:13:24;;;;;;;8.80;5.20;;;;;;;8.03;52.44;99827.78;5065478;28;20325;-68
2022/02/28 08:15:49;;;;;;;14.00;5.88;;;;;;;8.64;50.44;99824.81;5065447;28;20094;-68
2022/02/28 08:18:15;;;;;;;9.88;5.38;;;;;;;8.92;49.81;99819.75;5065374;28;20084;-68
2022/02/28 08:20:41;;;;;;;8.75;5.43;;;;;;;9.20;48.86;99821.69;5065336;28;20100;-68
2022/02/28 08:23:07;;;;;;;10.68;5.82;;;;;;;8.83;49.06;99810.94;5065278;28;20016;-68
2022/02/28 08:25:33;;;;;;;9.30;5.05;;;;;;;9.54;47.13;99813.03;5065460;28;20213;-68
2022/02/28 08:27:58;;;;;;;12.25;5.90;;;;;;;9.66;46.69;99849.91;5065110;28;20088;-68
2022/02/28 08:30:24;;;;;;;12.10;5.57;;;;;;;10.39;45.23;99817.63;5065148;28;20092;-68
2022/02/28 08:32:49;;;;;;;9.68;4.93;;;;;;;9.72;45.23;99814.00;5065117;28;20267;-68
2022/02/28 08:35:18;;;;;;;11.20;5.93;;;;;;;10.35;45.65;99918.53;5065041;28;20037;-68
2022/02/28 08:37:44;;;;;;;11.75;5.43;;;;;;;10.68;44.67;99850.09;5065034;28;20021;-68
2022/02/28 08:40:10;;;;;;;14.73;6.50;;;;;;;10.46;44.27;99858.84;5065180;28;20306;-68
2022/02/28 08:42:36;;;;;;;10.57;4.97;;;;;;;10.26;43.87;99865.88;5064880;28;20020;-68
2022/02/28 08:45:03;;;;;;;8.70;5.10;;;;;;;10.79;43.46;99864.13;5064870;28;20028;-68
2022/02/28 08:47:29;;;;;;;16.65;6.38;;;;;;;10.93;42.93;99862.34;5064744;28;20024;-68
2022/02/28 08:49:54;;;;;;;9.60;5.95;;;;;;;11.49;42.61;99865.75;5064796;28;20031;-68
2022/02/28 08:52:20;;;;;;;10.38;5.50;;;;;;;11.72;41.63;99900.84;5064723;28;20059;-68
2022/02/28 08:54:45;;;;;;;10.68;5.63;;;;;;;11.10;41.22;99850.03;5064710;28;20020;-68
2022/02/28 08:57:11;;;;;;;12.98;5.75;;;;;;;11.08;41.34;99838.63;5064691;28;20045;-68
2022/02/28 08:59:36;;;;;;;10.52;5.43;;;;;;;11.34;41.18;99842.06;5064423;28;20041;-68
2022/02/28 09:02:03;;;;;;;10.48;5.50;;;;;;;10.75;41.70;99830.75;5064601;28;20031;-68
2022/02/28 09:04:29;;;;;;;8.38;4.50;;;;;;;11.73;41.03;99839.28;5064805;28;20043;-68
2022/02/28 09:06:57;;;;;;;12.23;4.65;;;;;;;11.71;40.35;99835.78;5064438;28;20088;-68
2022/02/28 09:09:24;;;;;;;11.32;5.40;;;;;;;11.61;40.79;99836.66;5064702;28;20024;-68
2022/02/28 09:11:49;;;;;;;8.93;5.32;;;;;;;11.63;40.79;99848.13;5064447;28;20264;-68
2022/02/28 09:14:14;;;;;;;9.25;4.63;;;;;;;11.39;40.17;99827.09;5064375;28;20047;-68
2022/02/28 09:16:40;;;;;;;10.77;5.57;;;;;;;11.65;39.56;99819.13;5063977;28;20131;-68
2022/02/28 09:19:05;;;;;;;12.68;5.65;;;;;;;11.74;40.01;99824.34;5064284;28;20028;-68
2022/02/28 09:21:31;;;;;;;11.13;5.60;;;;;;;11.99;39.99;99850.56;5064238;28;20031;-68
2022/02/28 09:23:56;;;;;;;8.40;5.13;;;;;;;11.80;39.48;99830.44;5064125;28;20020;-68
2022/02/28 09:26:22;;;;;;;12.65;4.78;;;;;;;12.02;39.97;99834.72;5064111;28;20402;-68
2022/02/28 09:28:48;;;;;;;9.20;4.78;;;;;;;12.54;38.90;99832.59;5064132;28;20048;-68
2022/02/28 09:31:13;;;;;;;9.38;4.78;;;;;;;13.10;38.27;99830.31;5064068;28;20032;-69
2022/02/28 09:33:38;;;;;;;7.88;4.68;;;;;;;12.64;38.18;99829.00;5064061;28;20045;-69
2022/02/28 09:36:07;;;;;;;10.48;5.10;;;;;;;13.04;37.45;99825.97;5064029;28;20347;-69
2022/02/28 09:38:33;;;;;;;8.25;4.32;;;;;;;12.52;38.26;99818.53;5064210;28;20219;-68
2022/02/28 09:41:00;;;;;;;9.40;4.63;;;;;;;12.68;37.23;99815.75;5063956;28;20029;-68
2022/02/28 09:43:26;;;;;;;8.90;5.07;;;;;;;11.83;38.34;99806.69;5063942;28;20028;-68
2022/02/28 09:45:53;;;;;;;9.27;4.70;;;;;;;12.90;37.79;99817.28;5063904;28;20036;-68
2022/02/28 09:48:18;;;;;;;7.35;4.60;;;;;;;12.62;37.39;99813.16;5063777;28;20029;-68
2022/02/28 09:50:44;;;;;;;10.07;4.72;;;;;;;12.98;37.01;99810.16;5063853;28;20321;-68
2022/02/28 09:53:09;;;;;;;8.45;3.92;;;;;;;11.91;37.03;99811.94;5063823;28;20197;-69
2022/02/28 09:55:35;;;;;;;7.03;3.45;;;;;;;11.67;37.57;99812.94;5063851;28;20025;-69
2022/02/28 09:58:01;;;;;;;7.07;3.88;;;;;;;11.69;37.19;99808.53;5063770;28;20052;-69
2022/02/28 10:00:26;;;;;;;7.88;4.18;;;;;;;10.71;37.72;99807.94;5063663;28;20114;-69
2022/02/28 10:02:59;;;;;;;8.18;4.00;;;;;;;10.98;38.32;99826.31;5063758;28;20025;-69
2022/02/28 10:05:26;;;;;;;10.38;4.80;;;;;;;11.33;37.61;99821.84;5063794;28;20020;-69
2022/02/28 10:07:51;;;;;;;6.25;3.38;;;;;;;10.68;37.71;99814.09;5063625;28;20025;-69
2022/02/28 10:10:17;;;;;;;6.10;3.30;;;;;;;10.45;39.09;99809.72;5063680;28;20025;-69
2022/02/28 10:12:43;;;;;;;9.93;3.83;;;;;;;11.23;37.97;99820.13;5063673;28;20025;-69
2022/02/28 10:15:20;;;;;;;6.90;3.05;;;;;;;11.62;36.86;99814.75;5062480;28;20041;-69
2022/02/28 10:17:55;;;;;;;5.20;3.03;;;;;;;12.27;37.27;99823.13;5063660;28;20025;-69
2022/02/28 10:20:25;;;;;;;9.48;3.80;;;;;;;12.50;36.36;99821.16;5063822;28;20051;-69
2022/02/28 10:23:01;;;;;;;7.82;2.83;;;;;;;12.48;36.08;99812.41;5063550;28;20036;-69
2022/02/28 10:25:41;;;;;;;6.85;3.20;;;;;;;12.11;36.63;99818.84;5063755;28;20016;-69
2022/02/28 10:28:12;;;;;;;10.35;3.90;;;;;;;11.57;37.76;99816.47;5065112;28;20075;-69
2022/02/28 10:30:50;;;;;;;5.25;3.35;;;;;;;11.69;36.92;99805.91;5067506;28;20017;-69
2022/02/28 10:33:15;;;;;;;7.15;4.15;;;;;;;11.24;37.90;99805.19;5067409;28;20388;-69
2022/02/28 10:36:09;;;;;;;6.72;3.15;;;;;;;10.87;38.00;99810.56;5067392;28;20096;-69
2022/02/28 10:38:35;;;;;;;7.78;3.53;;;;;;;12.06;37.75;99815.34;5067603;28;20032;-69
2022/02/28 10:41:01;;;;;;;8.07;3.83;;;;;;;11.96;37.15;99818.94;5067235;28;20020;-69
2022/02/28 10:43:34;;;;;;;9.60;3.80;;;;;;;10.99;38.49;99809.66;5067225;28;20352;-69
2022/02/28 10:46:13;;;;;;;6.47;3.17;;;;;;;11.94;37.35;99807.53;5067175;28;20372;-69
2022/02/28 10:48:38;;;;;;;5.47;2.83;;;;;;;11.85;36.34;99818.13;5067202;28;20131;-69
2022/02/28 10:51:13;;;;;;;7.53;3.15;;;;;;;10.91;37.73;99800.88;5067143;28;20029;-69
2022/02/28 10:53:39;;;;;;;7.43;3.15;;;;;;;10.80;38.72;99800.03;5067144;28;20029;-69
2022/02/28 10:56:04;;;;;;;6.03;3.05;;;;;;;11.49;37.75;99810.38;5066993;28;20025;-69
2022/02/28 10:58:31;;;;;;;5.18;2.83;;;;;;;10.96;38.67;99799.13;5066962;28;20193;-69
2022/02/28 11:00:57;;;;;;;5.47;2.72;;;;;;;11.26;37.98;99809.56;5066744;28;20041;-69
2022/02/28 11:03:25;;;;;;;7.05;3.50;;;;;;;11.62;36.99;99809.47;5066842;28;20025;-69
2022/02/28 11:05:56;;;;;;;7.00;3.28;;;;;;;10.74;37.94;99803.56;5066774;28;20028;-69
2022/02/28 11:08:24;;;;;;;7.68;3.83;;;;;;;10.74;38.66;99807.94;5066650;28;20025;-69
2022/02/28 11:10:51;;;;;;;4.78;2.63;;;;;;;11.58;37.44;99820.84;5066943;28;20067;-69
2022/02/28 11:13:17;;;;;;;8.60;3.65;;;;;;;11.79;37.64;99823.44;5066691;28;20021;-69
2022/02/28 11:15:43;;;;;;;4.55;2.60;;;;;;;11.99;36.57;99821.53;5066859;28;20032;-69
2022/02/28 11:18:20;;;;;;;5.28;2.72;;;;;;;11.14;37.51;99814.91;5066611;28;20296;-69
2022/02/28 11:20:48;;;;;;;6.85;2.60;;;;;;;11.80;37.80;99811.13;5066527;28;20324;-69
2022/02/28 11:23:18;;;;;;;5.95;3.30;;;;;;;12.12;38.35;99811.81;5066446;28;20032;-69
2022/02/28 11:25:46;;;;;;;6.03;3.15;;;;;;;11.79;36.21;99802.34;5066915;28;20243;-69
2022/02/28 11:28:11;;;;;;;6.22;3.13;;;;;;;11.55;37.29;99797.13;5066295;28;20029;-69
2022/02/28 11:30:37;;;;;;;6.43;3.03;;;;;;;11.10;37.96;99792.06;5066402;28;20086;-69